createdAt,value
2019-02-10T00:00:23.796Z,998.08
2019-02-10T00:01:23.786Z,998.02
2019-02-10T00:02:23.772Z,998.14
2019-02-10T00:03:23.762Z,998.14
2019-02-10T00:04:23.782Z,998.12
2019-02-10T00:05:23.741Z,998.08
2019-02-10T00:06:25.006Z,998.12
2019-02-10T00:07:23.722Z,998.09
2019-02-10T00:08:23.728Z,998.06
2019-02-10T00:09:23.718Z,998.06
2019-02-10T00:10:23.691Z,998.03
2019-02-10T00:11:23.685Z,998.06
2019-02-10T00:12:23.664Z,998.10
2019-02-10T00:13:23.660Z,998.05
2019-02-10T00:14:24.613Z,998.00
2019-02-10T00:15:23.626Z,998.04
2019-02-10T00:16:23.664Z,998.00
2019-02-10T00:17:23.613Z,998.00
2019-02-10T00:18:23.594Z,997.99
2019-02-10T00:19:23.588Z,997.97
2019-02-10T00:20:23.586Z,997.91
2019-02-10T00:21:23.560Z,997.92
2019-02-10T00:22:23.582Z,997.94
2019-02-10T00:23:23.538Z,997.93
2019-02-10T00:24:23.528Z,997.90
2019-02-10T00:25:26.098Z,997.90
2019-02-10T00:26:24.100Z,997.91
2019-02-10T00:27:23.494Z,997.90
2019-02-10T00:28:26.101Z,997.90
2019-02-10T00:29:23.475Z,997.90
2019-02-10T00:30:23.456Z,997.92
2019-02-10T00:31:23.465Z,997.88
2019-02-10T00:32:23.436Z,997.96
2019-02-10T00:33:23.452Z,997.93
2019-02-10T00:34:23.420Z,997.94
2019-02-10T00:35:23.400Z,997.97
2019-02-10T00:36:23.390Z,997.97
2019-02-10T00:37:23.387Z,998.01
2019-02-10T00:38:23.412Z,997.98
2019-02-10T00:39:23.396Z,997.99
2019-02-10T00:40:23.364Z,998.00
2019-02-10T00:41:23.339Z,998.02
2019-02-10T00:42:23.333Z,998.01
2019-02-10T00:43:23.370Z,998.01
2019-02-10T00:44:23.305Z,998.02
2019-02-10T00:45:23.298Z,998.03
2019-02-10T00:46:23.286Z,998.02
2019-02-10T00:47:23.281Z,998.05
2019-02-10T00:48:23.274Z,998.04
2019-02-10T00:49:23.255Z,998.03
2019-02-10T00:50:23.236Z,998.04
2019-02-10T00:51:23.230Z,997.99
2019-02-10T00:52:23.216Z,997.98
2019-02-10T00:53:23.242Z,998.05
2019-02-10T00:54:23.200Z,998.02
2019-02-10T00:55:23.185Z,998.04
2019-02-10T00:56:23.174Z,997.99
2019-02-10T00:57:23.166Z,998.01
2019-02-10T00:58:23.181Z,998.01
2019-02-10T00:59:23.139Z,998.01
2019-02-10T01:00:23.136Z,998.03
2019-02-10T01:01:23.118Z,998.00
2019-02-10T01:02:23.111Z,998.01
2019-02-10T01:03:23.647Z,998.01
2019-02-10T01:04:23.087Z,997.99
2019-02-10T01:05:23.074Z,997.98
2019-02-10T01:06:23.063Z,997.97
2019-02-10T01:07:23.066Z,997.98
2019-02-10T01:08:23.084Z,997.95
2019-02-10T01:09:23.029Z,997.96
2019-02-10T01:10:23.019Z,997.96
2019-02-10T01:11:23.009Z,997.90
2019-02-10T01:12:22.997Z,997.89
2019-02-10T01:13:23.021Z,997.84
2019-02-10T01:14:23.595Z,997.88
2019-02-10T01:15:22.981Z,997.88
2019-02-10T01:16:22.957Z,997.87
2019-02-10T01:17:22.941Z,997.81
2019-02-10T01:18:22.960Z,997.81
2019-02-10T01:19:22.921Z,997.79
2019-02-10T01:20:22.909Z,997.81
2019-02-10T01:21:22.893Z,997.74
2019-02-10T01:22:22.887Z,997.79
2019-02-10T01:23:22.905Z,997.79
2019-02-10T01:24:22.865Z,997.80
2019-02-10T01:25:22.857Z,997.82
2019-02-10T01:26:22.855Z,997.76
2019-02-10T01:27:22.829Z,997.75
2019-02-10T01:28:22.852Z,997.77
2019-02-10T01:29:22.828Z,997.71
2019-02-10T01:30:22.799Z,997.71
2019-02-10T01:31:22.784Z,997.63
2019-02-10T01:32:22.773Z,997.68
2019-02-10T01:33:25.591Z,997.71
2019-02-10T01:34:22.753Z,997.69
2019-02-10T01:35:22.741Z,997.71
2019-02-10T01:36:22.731Z,997.69
2019-02-10T01:37:22.734Z,997.67
2019-02-10T01:38:22.711Z,997.65
2019-02-10T01:39:22.727Z,997.58
2019-02-10T01:40:22.683Z,997.60
2019-02-10T01:41:22.684Z,997.56
2019-02-10T01:42:23.589Z,997.57
2019-02-10T01:43:22.685Z,997.58
2019-02-10T01:44:22.642Z,997.59
2019-02-10T01:45:22.639Z,997.58
2019-02-10T01:46:22.636Z,997.59
2019-02-10T01:47:22.613Z,997.59
2019-02-10T01:48:22.631Z,997.58
2019-02-10T01:49:22.587Z,997.63
2019-02-10T01:50:22.588Z,997.65
2019-02-10T01:51:22.563Z,997.63
2019-02-10T01:52:22.553Z,997.58
2019-02-10T01:53:22.583Z,997.62
2019-02-10T01:54:22.533Z,997.55
2019-02-10T01:55:22.523Z,997.60
2019-02-10T01:56:22.515Z,997.53
2019-02-10T01:57:22.499Z,997.55
2019-02-10T01:59:21.505Z,997.53
2019-02-10T02:00:22.465Z,997.50
2019-02-10T02:01:22.457Z,997.51
2019-02-10T02:02:22.448Z,997.51
2019-02-10T02:03:22.473Z,997.51
2019-02-10T02:04:22.421Z,997.48
2019-02-10T02:05:25.087Z,997.47
2019-02-10T02:06:22.416Z,997.45
2019-02-10T02:07:25.093Z,997.44
2019-02-10T02:08:22.383Z,997.41
2019-02-10T02:09:22.397Z,997.41
2019-02-10T02:10:22.361Z,997.43
2019-02-10T02:11:22.345Z,997.38
2019-02-10T02:12:22.359Z,997.32
2019-02-10T02:13:23.089Z,997.34
2019-02-10T02:14:22.322Z,997.32
2019-02-10T02:15:22.296Z,997.28
2019-02-10T02:16:22.287Z,997.27
2019-02-10T02:17:22.280Z,997.23
2019-02-10T02:18:22.295Z,997.23
2019-02-10T02:19:23.083Z,997.21
2019-02-10T02:20:22.242Z,997.19
2019-02-10T02:21:22.233Z,997.11
2019-02-10T02:22:22.235Z,997.09
2019-02-10T02:23:23.083Z,997.15
2019-02-10T02:24:22.201Z,997.10
2019-02-10T02:25:22.190Z,997.13
2019-02-10T02:26:22.178Z,997.12
2019-02-10T02:27:22.167Z,997.07
2019-02-10T02:28:22.190Z,997.00
2019-02-10T02:29:22.149Z,997.01
2019-02-10T02:30:22.142Z,997.01
2019-02-10T02:31:22.127Z,996.95
2019-02-10T02:32:22.585Z,996.98
2019-02-10T02:33:22.149Z,996.94
2019-02-10T02:34:22.093Z,996.92
2019-02-10T02:35:22.085Z,996.90
2019-02-10T02:36:22.067Z,996.88
2019-02-10T02:37:22.065Z,996.91
2019-02-10T02:38:22.082Z,996.92
2019-02-10T02:39:22.047Z,996.87
2019-02-10T02:40:22.579Z,996.83
2019-02-10T02:41:22.013Z,996.80
2019-02-10T02:42:22.004Z,996.76
2019-02-10T02:43:22.049Z,996.76
2019-02-10T02:44:22.587Z,996.77
2019-02-10T02:45:22.000Z,996.75
2019-02-10T02:46:21.957Z,996.77
2019-02-10T02:47:24.585Z,996.82
2019-02-10T02:48:24.588Z,996.77
2019-02-10T02:49:21.935Z,996.76
2019-02-10T02:50:21.982Z,996.78
2019-02-10T02:51:21.915Z,996.75
2019-02-10T02:52:21.915Z,996.75
2019-02-10T02:53:21.890Z,996.79
2019-02-10T02:54:21.877Z,996.73
2019-02-10T02:55:21.865Z,996.79
2019-02-10T02:56:21.889Z,996.75
2019-02-10T02:57:21.845Z,996.78
2019-02-10T02:58:21.863Z,996.71
2019-02-10T02:59:21.821Z,996.73
2019-02-10T03:00:21.820Z,996.72
2019-02-10T03:01:21.836Z,996.63
2019-02-10T03:02:21.794Z,996.62
2019-02-10T03:03:21.813Z,996.66
2019-02-10T03:04:21.770Z,996.56
2019-02-10T03:05:21.804Z,996.53
2019-02-10T03:06:21.813Z,996.53
2019-02-10T03:07:21.733Z,996.56
2019-02-10T03:08:21.723Z,996.50
2019-02-10T03:09:21.711Z,996.52
2019-02-10T03:10:21.707Z,996.46
2019-02-10T03:11:21.691Z,996.41
2019-02-10T03:12:21.721Z,996.39
2019-02-10T03:13:21.693Z,996.43
2019-02-10T03:14:21.663Z,996.38
2019-02-10T03:15:21.655Z,996.38
2019-02-10T03:16:21.638Z,996.40
2019-02-10T03:17:22.575Z,996.38
2019-02-10T03:18:21.656Z,996.35
2019-02-10T03:19:21.597Z,996.37
2019-02-10T03:20:21.643Z,996.37
2019-02-10T03:21:21.595Z,996.32
2019-02-10T03:22:21.579Z,996.33
2019-02-10T03:23:21.566Z,996.35
2019-02-10T03:24:21.551Z,996.34
2019-02-10T03:25:21.540Z,996.32
2019-02-10T03:26:21.573Z,996.29
2019-02-10T03:27:21.516Z,996.29
2019-02-10T03:28:21.505Z,996.31
2019-02-10T03:29:21.493Z,996.24
2019-02-10T03:30:21.492Z,996.26
2019-02-10T03:31:21.518Z,996.26
2019-02-10T03:32:21.465Z,996.26
2019-02-10T03:33:21.459Z,996.22
2019-02-10T03:34:21.445Z,996.24
2019-02-10T03:35:21.484Z,996.20
2019-02-10T03:36:21.421Z,996.17
2019-02-10T03:37:26.869Z,996.13
2019-02-10T03:38:21.402Z,996.10
2019-02-10T03:39:21.383Z,996.11
2019-02-10T03:40:21.375Z,996.11
2019-02-10T03:41:21.411Z,996.12
2019-02-10T03:42:21.357Z,996.12
2019-02-10T03:43:21.366Z,996.05
2019-02-10T03:44:21.333Z,996.05
2019-02-10T03:45:21.621Z,996.07
2019-02-10T03:46:21.352Z,995.96
2019-02-10T03:47:22.149Z,996.04
2019-02-10T03:48:21.296Z,995.96
2019-02-10T03:49:21.283Z,995.94
2019-02-10T03:50:21.324Z,995.90
2019-02-10T03:51:21.270Z,995.87
2019-02-10T03:52:21.296Z,995.86
2019-02-10T03:53:21.237Z,995.84
2019-02-10T03:54:21.226Z,995.78
2019-02-10T03:55:21.232Z,995.76
2019-02-10T03:56:21.210Z,995.79
2019-02-10T03:57:21.191Z,995.81
2019-02-10T03:58:21.221Z,995.75
2019-02-10T03:59:21.165Z,995.76
2019-02-10T04:00:21.168Z,995.80
2019-02-10T04:01:21.157Z,995.79
2019-02-10T04:02:21.145Z,995.77
2019-02-10T04:03:21.131Z,995.71
2019-02-10T04:04:21.121Z,995.69
2019-02-10T04:05:21.119Z,995.67
2019-02-10T04:06:21.102Z,995.73
2019-02-10T04:07:21.086Z,995.68
2019-02-10T04:09:20.063Z,995.67
2019-02-10T04:10:21.055Z,995.68
2019-02-10T04:11:21.042Z,995.69
2019-02-10T04:12:21.032Z,995.72
2019-02-10T04:13:21.085Z,995.70
2019-02-10T04:14:21.015Z,995.73
2019-02-10T04:15:20.999Z,995.73
2019-02-10T04:16:20.994Z,995.72
2019-02-10T04:17:20.972Z,995.71
2019-02-10T04:18:20.970Z,995.70
2019-02-10T04:19:20.990Z,995.70
2019-02-10T04:20:20.941Z,995.72
2019-02-10T04:21:20.971Z,995.68
2019-02-10T04:22:20.926Z,995.70
2019-02-10T04:23:20.908Z,995.75
2019-02-10T04:24:20.902Z,995.68
2019-02-10T04:25:20.888Z,995.70
2019-02-10T04:26:20.868Z,995.67
2019-02-10T04:27:23.570Z,995.65
2019-02-10T04:28:20.856Z,995.67
2019-02-10T04:29:20.843Z,995.62
2019-02-10T04:30:20.844Z,995.63
2019-02-10T04:31:20.843Z,995.59
2019-02-10T04:32:20.811Z,995.59
2019-02-10T04:33:20.797Z,995.52
2019-02-10T04:34:20.792Z,995.50
2019-02-10T04:35:20.776Z,995.50
2019-02-10T04:36:20.777Z,995.47
2019-02-10T04:37:20.748Z,995.46
2019-02-10T04:38:20.746Z,995.42
2019-02-10T04:39:20.732Z,995.36
2019-02-10T04:40:20.754Z,995.40
2019-02-10T04:41:20.712Z,995.37
2019-02-10T04:42:20.714Z,995.34
2019-02-10T04:43:20.688Z,995.31
2019-02-10T04:44:20.687Z,995.33
2019-02-10T04:45:20.669Z,995.34
2019-02-10T04:46:20.688Z,995.26
2019-02-10T04:47:20.648Z,995.21
2019-02-10T04:48:20.637Z,995.22
2019-02-10T04:49:20.631Z,995.22
2019-02-10T04:50:20.613Z,995.21
2019-02-10T04:51:20.610Z,995.20
2019-02-10T04:52:20.594Z,995.23
2019-02-10T04:53:20.596Z,995.20
2019-02-10T04:54:20.573Z,995.21
2019-02-10T04:55:20.631Z,995.14
2019-02-10T04:56:20.551Z,995.15
2019-02-10T04:57:20.536Z,995.19
2019-02-10T04:58:20.525Z,995.12
2019-02-10T04:59:20.514Z,995.16
2019-02-10T05:00:20.506Z,995.15
2019-02-10T05:01:21.060Z,995.16
2019-02-10T05:02:20.486Z,995.13
2019-02-10T05:03:20.476Z,995.12
2019-02-10T05:04:20.496Z,995.10
2019-02-10T05:05:20.449Z,995.10
2019-02-10T05:06:20.439Z,995.10
2019-02-10T05:07:20.433Z,995.10
2019-02-10T05:08:20.408Z,995.03
2019-02-10T05:09:20.410Z,995.08
2019-02-10T05:10:21.835Z,995.05
2019-02-10T05:11:20.393Z,995.04
2019-02-10T05:12:20.375Z,994.99
2019-02-10T05:13:20.369Z,994.93
2019-02-10T05:14:20.358Z,994.89
2019-02-10T05:15:20.347Z,994.89
2019-02-10T05:16:20.396Z,994.84
2019-02-10T05:17:20.323Z,994.84
2019-02-10T05:18:20.306Z,994.84
2019-02-10T05:19:20.307Z,994.85
2019-02-10T05:20:20.305Z,994.82
2019-02-10T05:21:20.285Z,994.83
2019-02-10T05:22:20.306Z,994.75
2019-02-10T05:23:20.252Z,994.72
2019-02-10T05:24:20.244Z,994.70
2019-02-10T05:25:20.234Z,994.70
2019-02-10T05:26:20.218Z,994.65
2019-02-10T05:27:20.208Z,994.65
2019-02-10T05:28:20.234Z,994.53
2019-02-10T05:29:20.231Z,994.53
2019-02-10T05:30:20.180Z,994.50
2019-02-10T05:31:20.177Z,994.48
2019-02-10T05:32:23.060Z,994.46
2019-02-10T05:33:20.157Z,994.44
2019-02-10T05:34:21.059Z,994.45
2019-02-10T05:35:20.154Z,994.45
2019-02-10T05:36:20.112Z,994.43
2019-02-10T05:37:20.107Z,994.40
2019-02-10T05:38:20.096Z,994.39
2019-02-10T05:39:20.116Z,994.33
2019-02-10T05:40:20.072Z,994.32
2019-02-10T05:41:20.055Z,994.30
2019-02-10T05:42:20.051Z,994.29
2019-02-10T05:43:20.037Z,994.28
2019-02-10T05:44:20.040Z,994.30
2019-02-10T05:45:21.604Z,994.32
2019-02-10T05:46:19.997Z,994.32
2019-02-10T05:47:20.003Z,994.35
2019-02-10T05:48:19.987Z,994.30
2019-02-10T05:49:20.012Z,994.33
2019-02-10T05:50:19.957Z,994.24
2019-02-10T05:51:19.962Z,994.16
2019-02-10T05:52:19.967Z,994.18
2019-02-10T05:53:19.932Z,994.16
2019-02-10T05:54:19.950Z,994.13
2019-02-10T05:55:20.564Z,994.09
2019-02-10T05:56:19.902Z,994.08
2019-02-10T05:57:19.887Z,994.02
2019-02-10T05:58:19.874Z,993.99
2019-02-10T05:59:20.104Z,993.98
2019-02-10T06:00:19.886Z,993.94
2019-02-10T06:01:19.847Z,993.90
2019-02-10T06:02:19.834Z,993.85
2019-02-10T06:03:19.820Z,993.83
2019-02-10T06:04:19.816Z,993.82
2019-02-10T06:05:19.794Z,993.77
2019-02-10T06:06:20.610Z,993.79
2019-02-10T06:07:19.780Z,993.75
2019-02-10T06:08:19.770Z,993.73
2019-02-10T06:09:19.752Z,993.70
2019-02-10T06:10:19.755Z,993.70
2019-02-10T06:11:20.556Z,993.60
2019-02-10T06:12:21.610Z,993.60
2019-02-10T06:13:19.723Z,993.60
2019-02-10T06:14:19.712Z,993.59
2019-02-10T06:15:19.699Z,993.57
2019-02-10T06:16:19.684Z,993.56
2019-02-10T06:17:19.669Z,993.51
2019-02-10T06:18:19.724Z,993.49
2019-02-10T06:19:19.654Z,993.41
2019-02-10T06:20:19.638Z,993.40
2019-02-10T06:21:19.624Z,993.38
2019-02-10T06:22:19.626Z,993.37
2019-02-10T06:24:18.620Z,993.29
2019-02-10T06:25:19.586Z,993.27
2019-02-10T06:26:19.570Z,993.20
2019-02-10T06:27:19.556Z,993.21
2019-02-10T06:28:19.578Z,993.18
2019-02-10T06:29:19.543Z,993.21
2019-02-10T06:30:19.564Z,993.23
2019-02-10T06:31:19.516Z,993.25
2019-02-10T06:32:19.500Z,993.23
2019-02-10T06:33:19.496Z,993.21
2019-02-10T06:34:19.486Z,993.20
2019-02-10T06:35:19.486Z,993.13
2019-02-10T06:36:19.489Z,993.13
2019-02-10T06:37:19.467Z,993.11
2019-02-10T06:38:22.385Z,993.11
2019-02-10T06:39:19.428Z,993.12
2019-02-10T06:40:19.461Z,993.13
2019-02-10T06:41:19.404Z,993.03
2019-02-10T06:42:19.397Z,993.07
2019-02-10T06:43:20.048Z,993.04
2019-02-10T06:44:19.377Z,993.02
2019-02-10T06:45:19.380Z,992.94
2019-02-10T06:46:19.356Z,992.91
2019-02-10T06:48:18.328Z,992.70
2019-02-10T06:49:19.367Z,992.63
2019-02-10T06:50:19.358Z,992.41
2019-02-10T06:51:19.300Z,992.26
2019-02-10T06:52:19.296Z,992.08
2019-02-10T06:53:19.277Z,991.98
2019-02-10T06:54:19.267Z,992.10
2019-02-10T06:55:19.278Z,992.43
2019-02-10T06:56:20.052Z,992.68
2019-02-10T06:57:19.234Z,992.69
2019-02-10T06:58:19.220Z,992.59
2019-02-10T06:59:19.217Z,992.60
2019-02-10T07:00:19.230Z,992.65
2019-02-10T07:01:19.192Z,992.63
2019-02-10T07:02:19.182Z,992.68
2019-02-10T07:03:19.175Z,992.76
2019-02-10T07:04:19.158Z,992.79
2019-02-10T07:05:19.185Z,992.70
2019-02-10T07:06:19.136Z,992.63
2019-02-10T07:07:19.125Z,992.64
2019-02-10T07:08:19.144Z,992.67
2019-02-10T07:09:19.105Z,992.58
2019-02-10T07:10:20.052Z,992.58
2019-02-10T07:11:19.092Z,992.61
2019-02-10T07:12:19.074Z,992.65
2019-02-10T07:13:19.106Z,992.65
2019-02-10T07:14:19.051Z,992.60
2019-02-10T07:15:19.038Z,992.59
2019-02-10T07:16:19.029Z,992.62
2019-02-10T07:17:19.014Z,992.53
2019-02-10T07:18:19.072Z,992.46
2019-02-10T07:19:18.993Z,992.40
2019-02-10T07:20:18.983Z,992.39
2019-02-10T07:21:18.982Z,992.41
2019-02-10T07:22:18.964Z,992.29
2019-02-10T07:23:19.548Z,992.13
2019-02-10T07:24:18.969Z,992.05
2019-02-10T07:25:18.939Z,992.04
2019-02-10T07:26:19.546Z,992.04
2019-02-10T07:27:18.912Z,992.07
2019-02-10T07:28:18.928Z,992.12
2019-02-10T07:29:18.888Z,992.20
2019-02-10T07:30:18.870Z,992.27
2019-02-10T07:31:18.864Z,992.29
2019-02-10T07:32:18.858Z,992.30
2019-02-10T07:33:18.846Z,992.23
2019-02-10T07:34:21.543Z,992.29
2019-02-10T07:35:18.824Z,992.36
2019-02-10T07:36:18.813Z,992.39
2019-02-10T07:37:18.798Z,992.38
2019-02-10T07:38:18.788Z,992.39
2019-02-10T07:39:18.777Z,992.42
2019-02-10T07:40:19.091Z,992.40
2019-02-10T07:41:18.759Z,992.41
2019-02-10T07:42:18.759Z,992.33
2019-02-10T07:43:18.744Z,992.27
2019-02-10T07:44:18.728Z,992.31
2019-02-10T07:45:18.715Z,992.31
2019-02-10T07:46:18.736Z,992.32
2019-02-10T07:47:18.700Z,992.27
2019-02-10T07:48:18.722Z,992.22
2019-02-10T07:49:18.670Z,992.16
2019-02-10T07:50:18.656Z,992.13
2019-02-10T07:51:18.648Z,992.14
2019-02-10T07:52:18.643Z,992.10
2019-02-10T07:53:18.626Z,992.05
2019-02-10T07:54:21.542Z,991.96
2019-02-10T07:55:18.602Z,991.97
2019-02-10T07:56:18.588Z,991.95
2019-02-10T07:57:21.557Z,991.90
2019-02-10T07:58:18.572Z,991.91
2019-02-10T07:59:18.568Z,991.95
2019-02-10T08:00:18.544Z,991.89
2019-02-10T08:01:18.540Z,991.88
2019-02-10T08:02:18.527Z,991.86
2019-02-10T08:03:18.510Z,991.78
2019-02-10T08:04:18.509Z,991.80
2019-02-10T08:05:18.493Z,991.69
2019-02-10T08:06:18.493Z,991.76
2019-02-10T08:07:18.469Z,991.73
2019-02-10T08:08:18.589Z,991.64
2019-02-10T08:09:18.448Z,991.69
2019-02-10T08:10:18.445Z,991.66
2019-02-10T08:11:18.429Z,991.60
2019-02-10T08:12:18.427Z,991.59
2019-02-10T08:13:18.401Z,991.47
2019-02-10T08:14:18.402Z,991.56
2019-02-10T08:15:18.390Z,991.50
2019-02-10T08:16:18.374Z,991.45
2019-02-10T08:17:18.357Z,991.44
2019-02-10T08:18:18.349Z,991.43
2019-02-10T08:19:18.335Z,991.42
2019-02-10T08:20:18.371Z,991.40
2019-02-10T08:21:18.320Z,991.35
2019-02-10T08:22:18.305Z,991.32
2019-02-10T08:23:18.294Z,991.28
2019-02-10T08:24:18.281Z,991.31
2019-02-10T08:25:18.276Z,991.20
2019-02-10T08:26:21.045Z,991.21
2019-02-10T08:27:18.290Z,991.21
2019-02-10T08:28:21.040Z,991.19
2019-02-10T08:29:18.261Z,991.11
2019-02-10T08:30:18.227Z,991.07
2019-02-10T08:31:18.213Z,991.03
2019-02-10T08:32:18.203Z,991.02
2019-02-10T08:33:18.194Z,990.97
2019-02-10T08:34:18.175Z,990.94
2019-02-10T08:35:18.195Z,990.93
2019-02-10T08:36:18.153Z,990.92
2019-02-10T08:37:21.044Z,990.86
2019-02-10T08:38:18.136Z,990.80
2019-02-10T08:39:18.141Z,990.70
2019-02-10T08:40:18.120Z,990.73
2019-02-10T08:41:21.037Z,990.73
2019-02-10T08:42:18.085Z,990.76
2019-02-10T08:43:18.079Z,990.69
2019-02-10T08:44:18.089Z,990.70
2019-02-10T08:45:18.057Z,990.62
2019-02-10T08:46:18.066Z,990.63
2019-02-10T08:47:18.066Z,990.66
2019-02-10T08:48:18.013Z,990.67
2019-02-10T08:49:18.019Z,990.62
2019-02-10T08:50:17.997Z,990.62
2019-02-10T08:51:18.043Z,990.55
2019-02-10T08:52:17.981Z,990.50
2019-02-10T08:53:17.965Z,990.47
2019-02-10T08:54:17.951Z,990.51
2019-02-10T08:55:17.945Z,990.53
2019-02-10T08:56:17.934Z,990.44
2019-02-10T08:57:17.956Z,990.53
2019-02-10T08:58:17.911Z,990.54
2019-02-10T08:59:17.899Z,990.54
2019-02-10T09:00:17.900Z,990.49
2019-02-10T09:01:17.876Z,990.47
2019-02-10T09:02:17.869Z,990.50
2019-02-10T09:03:19.644Z,990.49
2019-02-10T09:04:17.851Z,990.43
2019-02-10T09:05:17.882Z,990.38
2019-02-10T09:06:17.826Z,990.34
2019-02-10T09:07:17.808Z,990.24
2019-02-10T09:08:17.839Z,990.23
2019-02-10T09:09:17.789Z,990.19
2019-02-10T09:10:17.789Z,990.17
2019-02-10T09:11:17.766Z,990.07
2019-02-10T09:12:17.759Z,990.12
2019-02-10T09:13:17.753Z,990.05
2019-02-10T09:14:17.783Z,990.02
2019-02-10T09:15:17.725Z,989.91
2019-02-10T09:16:17.719Z,989.87
2019-02-10T09:17:17.699Z,989.84
2019-02-10T09:18:17.697Z,989.81
2019-02-10T09:19:17.677Z,989.86
2019-02-10T09:20:17.673Z,989.84
2019-02-10T09:21:17.653Z,989.78
2019-02-10T09:22:17.642Z,989.71
2019-02-10T09:23:17.634Z,989.67
2019-02-10T09:24:17.648Z,989.62
2019-02-10T09:25:18.531Z,989.52
2019-02-10T09:26:17.601Z,989.53
2019-02-10T09:28:19.530Z,989.46
2019-02-10T09:29:17.587Z,989.49
2019-02-10T09:30:17.551Z,989.41
2019-02-10T09:31:17.549Z,989.37
2019-02-10T09:32:17.544Z,989.40
2019-02-10T09:33:17.533Z,989.38
2019-02-10T09:34:17.526Z,989.40
2019-02-10T09:35:17.511Z,989.42
2019-02-10T09:36:17.492Z,989.36
2019-02-10T09:37:17.483Z,989.31
2019-02-10T09:38:17.470Z,989.33
2019-02-10T09:39:17.480Z,989.32
2019-02-10T09:40:17.449Z,989.30
2019-02-10T09:41:17.444Z,989.32
2019-02-10T09:42:17.430Z,989.23
2019-02-10T09:43:17.443Z,989.28
2019-02-10T09:44:17.401Z,989.21
2019-02-10T09:45:17.393Z,989.22
2019-02-10T09:46:17.380Z,989.23
2019-02-10T09:47:17.370Z,989.19
2019-02-10T09:48:17.388Z,989.15
2019-02-10T09:49:17.353Z,989.17
2019-02-10T09:50:17.340Z,989.19
2019-02-10T09:51:17.329Z,989.10
2019-02-10T09:52:17.323Z,989.11
2019-02-10T09:53:17.339Z,989.04
2019-02-10T09:54:17.298Z,988.98
2019-02-10T09:55:17.283Z,988.98
2019-02-10T09:56:17.275Z,988.99
2019-02-10T09:57:17.261Z,988.96
2019-02-10T09:58:17.251Z,988.85
2019-02-10T09:59:17.298Z,988.90
2019-02-10T10:00:17.228Z,988.78
2019-02-10T10:01:17.223Z,988.76
2019-02-10T10:02:17.210Z,988.79
2019-02-10T10:03:17.201Z,988.76
2019-02-10T10:04:17.223Z,988.77
2019-02-10T10:05:17.178Z,988.71
2019-02-10T10:06:17.171Z,988.70
2019-02-10T10:07:17.159Z,988.69
2019-02-10T10:08:17.139Z,988.60
2019-02-10T10:09:19.523Z,988.64
2019-02-10T10:10:17.125Z,988.66
2019-02-10T10:11:17.107Z,988.63
2019-02-10T10:12:17.099Z,988.58
2019-02-10T10:13:17.083Z,988.63
2019-02-10T10:14:17.107Z,988.55
2019-02-10T10:15:17.061Z,988.56
2019-02-10T10:16:17.099Z,988.58
2019-02-10T10:17:17.053Z,988.54
2019-02-10T10:18:17.031Z,988.53
2019-02-10T10:19:17.023Z,988.53
2019-02-10T10:20:17.017Z,988.51
2019-02-10T10:21:17.012Z,988.42
2019-02-10T10:22:17.015Z,988.31
2019-02-10T10:23:16.975Z,988.32
2019-02-10T10:24:16.974Z,988.31
2019-02-10T10:25:16.966Z,988.28
2019-02-10T10:26:17.019Z,988.22
2019-02-10T10:27:16.933Z,988.28
2019-02-10T10:28:16.919Z,988.23
2019-02-10T10:29:16.913Z,988.24
2019-02-10T10:30:16.908Z,988.22
2019-02-10T10:31:17.520Z,988.15
2019-02-10T10:32:16.924Z,988.20
2019-02-10T10:33:16.875Z,988.09
2019-02-10T10:34:16.861Z,988.14
2019-02-10T10:35:16.847Z,988.12
2019-02-10T10:36:16.836Z,988.15
2019-02-10T10:37:16.830Z,988.08
2019-02-10T10:38:16.829Z,988.10
2019-02-10T10:39:16.837Z,988.11
2019-02-10T10:40:16.788Z,988.08
2019-02-10T10:41:16.787Z,988.06
2019-02-10T10:42:16.776Z,987.99
2019-02-10T10:43:16.766Z,988.05
2019-02-10T10:44:16.789Z,987.99
2019-02-10T10:45:16.736Z,988.02
2019-02-10T10:46:16.731Z,988.02
2019-02-10T10:47:16.771Z,988.08
2019-02-10T10:48:16.705Z,988.00
2019-02-10T10:49:16.727Z,987.96
2019-02-10T10:50:16.687Z,987.96
2019-02-10T10:51:16.697Z,987.90
2019-02-10T10:52:16.669Z,987.99
2019-02-10T10:53:17.533Z,987.89
2019-02-10T10:54:16.641Z,987.91
2019-02-10T10:55:16.630Z,987.87
2019-02-10T10:56:16.622Z,987.78
2019-02-10T10:57:16.606Z,987.88
2019-02-10T10:58:16.590Z,987.77
2019-02-10T10:59:16.617Z,987.73
2019-02-10T11:00:16.579Z,987.62
2019-02-10T11:01:16.563Z,987.59
2019-02-10T11:02:16.552Z,987.55
2019-02-10T11:03:17.314Z,987.57
2019-02-10T11:04:16.576Z,987.63
2019-02-10T11:05:16.521Z,987.59
2019-02-10T11:06:16.514Z,987.54
2019-02-10T11:07:16.504Z,987.51
2019-02-10T11:08:16.478Z,987.46
2019-02-10T11:09:16.514Z,987.51
2019-02-10T11:10:16.465Z,987.46
2019-02-10T11:11:16.452Z,987.46
2019-02-10T11:12:16.445Z,987.43
2019-02-10T11:13:17.021Z,987.32
2019-02-10T11:14:16.429Z,987.24
2019-02-10T11:15:16.443Z,987.20
2019-02-10T11:16:16.408Z,987.18
2019-02-10T11:17:16.394Z,987.21
2019-02-10T11:18:16.378Z,987.14
2019-02-10T11:19:16.398Z,987.06
2019-02-10T11:20:16.355Z,987.04
2019-02-10T11:21:16.350Z,986.98
2019-02-10T11:22:17.017Z,986.97
2019-02-10T11:23:16.327Z,987.01
2019-02-10T11:24:16.343Z,986.94
2019-02-10T11:25:16.300Z,986.85
2019-02-10T11:26:16.292Z,986.96
2019-02-10T11:27:16.292Z,986.94
2019-02-10T11:28:16.270Z,986.94
2019-02-10T11:29:16.302Z,986.92
2019-02-10T11:30:16.248Z,987.00
2019-02-10T11:31:16.243Z,986.89
2019-02-10T11:32:16.230Z,986.90
2019-02-10T11:33:16.228Z,986.89
2019-02-10T11:34:16.246Z,986.91
2019-02-10T11:35:16.194Z,986.89
2019-02-10T11:36:38.016Z,986.94
2019-02-10T11:37:16.176Z,986.89
2019-02-10T11:38:16.162Z,986.96
2019-02-10T11:39:16.182Z,986.96
2019-02-10T11:40:16.143Z,986.86
2019-02-10T11:41:16.129Z,986.90
2019-02-10T11:42:17.012Z,986.87
2019-02-10T11:43:16.106Z,986.78
2019-02-10T11:44:16.151Z,986.71
2019-02-10T11:45:16.086Z,986.64
2019-02-10T11:46:16.075Z,986.75
2019-02-10T11:47:16.066Z,986.64
2019-02-10T11:48:16.053Z,986.63
2019-02-10T11:49:16.042Z,986.50
2019-02-10T11:50:16.067Z,986.45
2019-02-10T11:51:16.058Z,986.49
2019-02-10T11:52:16.014Z,986.42
2019-02-10T11:53:16.002Z,986.37
2019-02-10T11:54:15.982Z,986.23
2019-02-10T11:55:15.982Z,986.19
2019-02-10T11:56:16.004Z,986.22
2019-02-10T11:57:15.954Z,986.10
2019-02-10T11:58:15.948Z,985.97
2019-02-10T11:59:15.935Z,985.91
2019-02-10T12:00:15.929Z,985.86
2019-02-10T12:01:15.946Z,985.93
2019-02-10T12:02:15.906Z,985.75
2019-02-10T12:03:15.894Z,985.78
2019-02-10T12:04:18.509Z,985.73
2019-02-10T12:05:15.874Z,985.76
2019-02-10T12:06:15.865Z,985.71
2019-02-10T12:07:15.850Z,985.61
2019-02-10T12:08:15.845Z,985.64
2019-02-10T12:09:15.827Z,985.60
2019-02-10T12:10:15.866Z,985.45
2019-02-10T12:11:15.815Z,985.48
2019-02-10T12:12:15.797Z,985.43
2019-02-10T12:13:15.791Z,985.36
2019-02-10T12:14:15.770Z,985.29
2019-02-10T12:15:15.764Z,985.27
2019-02-10T12:16:15.782Z,985.25
2019-02-10T12:17:15.759Z,985.22
2019-02-10T12:18:15.726Z,985.18
2019-02-10T12:19:15.722Z,985.14
2019-02-10T12:20:15.702Z,985.11
2019-02-10T12:21:15.750Z,985.06
2019-02-10T12:22:15.694Z,985.02
2019-02-10T12:23:15.685Z,984.95
2019-02-10T12:24:15.715Z,985.00
2019-02-10T12:25:15.650Z,984.94
2019-02-10T12:26:15.645Z,984.83
2019-02-10T12:27:15.652Z,984.91
2019-02-10T12:28:15.637Z,984.80
2019-02-10T12:29:15.647Z,984.84
2019-02-10T12:30:15.605Z,984.70
2019-02-10T12:31:15.593Z,984.67
2019-02-10T12:32:15.578Z,984.66
2019-02-10T12:33:15.572Z,984.59